FMEPFMEE

Guest
Details From FMEP - ST PIERRE PIERREFONDS
To FMEE - St Denis Gillot
Flight Number -
Tags generated
Created
Modified
Stats Distance 27 nm / 50 km
Max Altitude 100 ft / 30 m
Waypoints 3
Social Downloads 3
Likes 0
Share

Download

Looking for another format? Having issues loading an existing format? Contact us
Advertisement - Login to hide

Notes

Basic altitude profile: - Ascent Rate: 2500ft/min - Ascent Speed: 250kts - Cruise Altitude: 35000ft - Cruise Speed: 420kts - Descent Rate: 1500ft/min - Descent Speed: 250kts Options: - Use NATs: yes - Use PACOTS: yes - Use low airways: yes - Use high airways: no

Route

FMEP SDG FMEE

ID Type Via Altitude (ft/m) Position (lat/lon) Dist (leg/tot) Name
O FMEP APT - 0 / 0 -21.32004 / 55.42358 - / 0 nm ST PIERRE PIERREFONDS
SDG VOR - 100 / 30 -20.88483 / 55.50981 26 / 26 nm ST DENIS GILLOT VOR-DME
O FMEE APT - 0 / 0 -20.88931 / 55.51775 0 / 27 nm St Denis Gillot

Altitude Profile

Advertisement - Login to hide

FMEP

Details ICAO FMEP (ZSE)
Name ST PIERRE PIERREFONDS
Region Comoros, Mayotte, Réunion and Madagascar
Timezone Unknown
Stats Elevation 56 ft / 17 m (AMSL)
Location -21.319400° 55.422600°
Runways 1
Magnetic Variation 19.415° W

METAR

FMEP 160830Z AUTO 25006KT 220V280 9999 FEW037 29/18 Q1017 BECMG 08010KT

Decode

TAF

Not found

Departure Runways

ID Width Length Bearing (true/mag) Surface Threshold Overrun Markings Lighting
15 133 ft / 41 m 6,900 ft / 2,103 m 129.13° / 148.54° ASPHALT 0 ft / 0 m 0 ft / 0 m APP
33 133 ft / 41 m 6,900 ft / 2,103 m 309.12° / 328.54° ASPHALT 0 ft / 0 m 0 ft / 0 m APP

FMEE

Details ICAO FMEE (RUN)
Name Roland Garros
Region Comoros, Mayotte, Réunion and Madagascar
Timezone Indian/Reunion (UTC+4.0)
Stats Elevation 66 ft / 20 m (AMSL)
Location -20.889300° 55.517700°
Runways 2
Magnetic Variation 18.862° W

METAR

FMEE 160830Z AUTO 11015KT CAVOK 29/20 Q1017 NOSIG

Decode

TAF

TAF FMEE 160500Z 1606/1712 10015KT 9999 FEW070 BECMG 1615/1618 16010KT TEMPO 1618/1703 BKN014 BECMG 1704/1706 10015KT

Decode

Destination Runways

ID Width Length Bearing (true/mag) Surface Threshold Overrun Markings Lighting
12 148 ft / 45 m 10,492 ft / 3,198 m 102.28° / 121.14° ASPHALT 397 ft / 121 m 0 ft / 0 m APP CENTERLINE EDGE THRESHOLD REIL-OMNI
14 148 ft / 45 m 8,768 ft / 2,672 m 116.58° / 135.45° ASPHALT 328 ft / 100 m 0 ft / 0 m PREC-APP CENTERLINE EDGE THRESHOLD REIL-OMNI
30 148 ft / 45 m 10,492 ft / 3,198 m 282.26° / 301.13° ASPHALT 0 ft / 0 m 0 ft / 0 m APP CENTERLINE EDGE THRESHOLD REIL-OMNI
32 148 ft / 45 m 8,768 ft / 2,672 m 296.58° / 315.44° ASPHALT 1,175 ft / 358 m 0 ft / 0 m APP CENTERLINE EDGE THRESHOLD REIL-OMNI

Approach Navaids

Runway Type Ident Frequency Range Bearing (true/mag) Slope Elevation
14 LOC-ILS SD 110.30 MHz 18 nm / 33 km 116.63° / 135.49 ° - 66 ft / 20 m (AMSL)
14 GS SD 110.30 MHz 10 nm / 19 km 117.09° / 135.95 ° 3.00° 46 ft / 14 m (AMSL)
14 DME SD 110.30 MHz 18 nm / 33 km - - 46 ft / 14 m (AMSL)

Popular Alternatives